sensor_id;sensor_type;location;lat;lon;timestamp;P1;durP1;ratioP1;P2;durP2;ratioP2
29774;SDS011;16676;51.202;6.774;2023-02-15T00:00:29;7.70;;;4.78;;
29774;SDS011;16676;51.202;6.774;2023-02-15T00:04:31;7.28;;;4.45;;
29774;SDS011;16676;51.202;6.774;2023-02-15T00:08:48;6.07;;;4.10;;
29774;SDS011;16676;51.202;6.774;2023-02-15T00:12:50;7.25;;;4.20;;
29774;SDS011;16676;51.202;6.774;2023-02-15T00:16:52;8.98;;;4.40;;
29774;SDS011;16676;51.202;6.774;2023-02-15T00:20:55;6.97;;;4.90;;
29774;SDS011;16676;51.202;6.774;2023-02-15T00:24:58;7.68;;;4.78;;
29774;SDS011;16676;51.202;6.774;2023-02-15T00:29:00;9.40;;;5.25;;
29774;SDS011;16676;51.202;6.774;2023-02-15T00:33:02;8.43;;;4.80;;
29774;SDS011;16676;51.202;6.774;2023-02-15T00:37:04;8.60;;;4.95;;
29774;SDS011;16676;51.202;6.774;2023-02-15T00:41:07;7.13;;;4.50;;
29774;SDS011;16676;51.202;6.774;2023-02-15T00:45:10;7.85;;;4.28;;
29774;SDS011;16676;51.202;6.774;2023-02-15T00:49:12;6.20;;;4.63;;
29774;SDS011;16676;51.202;6.774;2023-02-15T00:53:14;7.53;;;4.80;;
29774;SDS011;16676;51.202;6.774;2023-02-15T00:57:18;7.32;;;4.82;;
29774;SDS011;16676;51.202;6.774;2023-02-15T01:01:20;8.25;;;4.82;;
29774;SDS011;16676;51.202;6.774;2023-02-15T01:05:22;6.93;;;4.30;;
29774;SDS011;16676;51.202;6.774;2023-02-15T01:09:24;8.07;;;4.72;;
29774;SDS011;16676;51.202;6.774;2023-02-15T01:13:27;7.65;;;4.97;;
29774;SDS011;16676;51.202;6.774;2023-02-15T01:17:29;7.25;;;4.70;;
29774;SDS011;16676;51.202;6.774;2023-02-15T01:21:32;6.05;;;4.25;;
29774;SDS011;16676;51.202;6.774;2023-02-15T01:25:35;5.45;;;4.15;;
29774;SDS011;16676;51.202;6.774;2023-02-15T01:29:38;7.13;;;4.80;;
29774;SDS011;16676;51.202;6.774;2023-02-15T01:33:40;8.05;;;4.72;;
29774;SDS011;16676;51.202;6.774;2023-02-15T01:37:43;7.40;;;4.70;;
29774;SDS011;16676;51.202;6.774;2023-02-15T01:41:45;6.55;;;4.88;;
29774;SDS011;16676;51.202;6.774;2023-02-15T01:45:48;9.65;;;5.00;;
29774;SDS011;16676;51.202;6.774;2023-02-15T01:49:52;6.45;;;4.50;;
29774;SDS011;16676;51.202;6.774;2023-02-15T01:54:02;7.60;;;4.53;;
29774;SDS011;16676;51.202;6.774;2023-02-15T01:58:11;6.03;;;4.22;;
29774;SDS011;16676;51.202;6.774;2023-02-15T02:02:15;6.70;;;4.53;;
29774;SDS011;16676;51.202;6.774;2023-02-15T02:06:20;7.15;;;4.55;;
29774;SDS011;16676;51.202;6.774;2023-02-15T02:10:23;7.45;;;4.80;;
29774;SDS011;16676;51.202;6.774;2023-02-15T02:14:26;6.78;;;4.22;;
29774;SDS011;16676;51.202;6.774;2023-02-15T02:18:33;7.10;;;4.78;;
29774;SDS011;16676;51.202;6.774;2023-02-15T02:23:04;5.97;;;4.47;;
29774;SDS011;16676;51.202;6.774;2023-02-15T02:27:26;6.88;;;4.20;;
29774;SDS011;16676;51.202;6.774;2023-02-15T02:36:08;6.68;;;4.40;;
29774;SDS011;16676;51.202;6.774;2023-02-15T02:40:18;5.22;;;4.00;;
29774;SDS011;16676;51.202;6.774;2023-02-15T02:44:27;6.78;;;4.35;;
29774;SDS011;16676;51.202;6.774;2023-02-15T02:48:32;5.80;;;4.53;;
29774;SDS011;16676;51.202;6.774;2023-02-15T02:52:38;6.25;;;4.05;;
29774;SDS011;16676;51.202;6.774;2023-02-15T02:56:43;5.90;;;4.15;;
29774;SDS011;16676;51.202;6.774;2023-02-15T03:00:50;7.13;;;4.57;;
29774;SDS011;16676;51.202;6.774;2023-02-15T03:04:54;5.85;;;4.43;;
29774;SDS011;16676;51.202;6.774;2023-02-15T03:09:06;6.38;;;4.68;;
29774;SDS011;16676;51.202;6.774;2023-02-15T03:13:15;7.10;;;4.57;;
29774;SDS011;16676;51.202;6.774;2023-02-15T03:17:18;7.22;;;4.72;;
29774;SDS011;16676;51.202;6.774;2023-02-15T03:21:26;7.32;;;4.63;;
29774;SDS011;16676;51.202;6.774;2023-02-15T03:25:36;5.22;;;4.07;;
29774;SDS011;16676;51.202;6.774;2023-02-15T03:29:40;6.53;;;4.75;;
29774;SDS011;16676;51.202;6.774;2023-02-15T03:33:44;6.45;;;4.55;;
29774;SDS011;16676;51.202;6.774;2023-02-15T03:37:51;7.78;;;5.00;;
29774;SDS011;16676;51.202;6.774;2023-02-15T03:42:01;5.32;;;4.25;;
29774;SDS011;16676;51.202;6.774;2023-02-15T03:46:11;7.05;;;4.43;;
29774;SDS011;16676;51.202;6.774;2023-02-15T03:50:18;6.63;;;4.70;;
29774;SDS011;16676;51.202;6.774;2023-02-15T03:54:39;6.30;;;4.53;;
29774;SDS011;16676;51.202;6.774;2023-02-15T03:58:47;5.43;;;3.97;;
29774;SDS011;16676;51.202;6.774;2023-02-15T04:03:17;6.15;;;4.35;;
29774;SDS011;16676;51.202;6.774;2023-02-15T04:07:25;6.03;;;3.83;;
29774;SDS011;16676;51.202;6.774;2023-02-15T04:11:26;6.10;;;4.68;;
29774;SDS011;16676;51.202;6.774;2023-02-15T04:15:30;6.93;;;4.60;;
29774;SDS011;16676;51.202;6.774;2023-02-15T04:19:49;5.82;;;4.22;;
29774;SDS011;16676;51.202;6.774;2023-02-15T04:24:09;7.75;;;4.43;;
29774;SDS011;16676;51.202;6.774;2023-02-15T04:28:30;5.38;;;4.00;;
29774;SDS011;16676;51.202;6.774;2023-02-15T04:32:33;6.03;;;4.35;;
29774;SDS011;16676;51.202;6.774;2023-02-15T04:36:36;6.28;;;4.50;;
29774;SDS011;16676;51.202;6.774;2023-02-15T04:40:38;6.47;;;4.53;;
29774;SDS011;16676;51.202;6.774;2023-02-15T04:44:39;5.38;;;4.28;;
29774;SDS011;16676;51.202;6.774;2023-02-15T04:48:43;6.55;;;4.57;;
29774;SDS011;16676;51.202;6.774;2023-02-15T04:52:45;6.20;;;4.05;;
29774;SDS011;16676;51.202;6.774;2023-02-15T04:56:47;7.95;;;4.60;;
29774;SDS011;16676;51.202;6.774;2023-02-15T05:00:49;6.22;;;4.72;;
29774;SDS011;16676;51.202;6.774;2023-02-15T05:04:52;7.97;;;4.63;;
29774;SDS011;16676;51.202;6.774;2023-02-15T05:08:54;5.53;;;4.07;;
29774;SDS011;16676;51.202;6.774;2023-02-15T05:12:56;6.75;;;4.47;;
29774;SDS011;16676;51.202;6.774;2023-02-15T05:16:58;6.03;;;4.32;;
29774;SDS011;16676;51.202;6.774;2023-02-15T05:21:03;5.00;;;4.15;;
29774;SDS011;16676;51.202;6.774;2023-02-15T05:25:05;5.40;;;4.03;;
29774;SDS011;16676;51.202;6.774;2023-02-15T05:29:30;4.35;;;3.90;;
29774;SDS011;16676;51.202;6.774;2023-02-15T05:33:32;6.80;;;4.90;;
29774;SDS011;16676;51.202;6.774;2023-02-15T05:37:36;6.20;;;4.40;;
29774;SDS011;16676;51.202;6.774;2023-02-15T05:41:38;6.38;;;4.40;;
29774;SDS011;16676;51.202;6.774;2023-02-15T05:45:40;5.90;;;4.10;;
29774;SDS011;16676;51.202;6.774;2023-02-15T05:49:45;5.35;;;4.28;;
29774;SDS011;16676;51.202;6.774;2023-02-15T05:53:48;5.78;;;4.43;;
29774;SDS011;16676;51.202;6.774;2023-02-15T05:57:50;5.78;;;3.80;;
29774;SDS011;16676;51.202;6.774;2023-02-15T06:01:52;8.52;;;4.50;;
29774;SDS011;16676;51.202;6.774;2023-02-15T06:05:54;6.38;;;4.55;;
29774;SDS011;16676;51.202;6.774;2023-02-15T06:09:57;6.55;;;4.13;;
29774;SDS011;16676;51.202;6.774;2023-02-15T06:13:59;6.32;;;4.30;;
29774;SDS011;16676;51.202;6.774;2023-02-15T06:18:01;5.93;;;4.20;;
29774;SDS011;16676;51.202;6.774;2023-02-15T06:22:03;6.30;;;4.32;;
29774;SDS011;16676;51.202;6.774;2023-02-15T06:26:07;4.97;;;4.00;;
29774;SDS011;16676;51.202;6.774;2023-02-15T06:30:10;5.78;;;4.22;;
29774;SDS011;16676;51.202;6.774;2023-02-15T06:34:13;16.33;;;11.15;;
29774;SDS011;16676;51.202;6.774;2023-02-15T06:38:15;25.25;;;16.73;;
29774;SDS011;16676;51.202;6.774;2023-02-15T06:42:19;29.10;;;19.23;;
29774;SDS011;16676;51.202;6.774;2023-02-15T06:46:21;29.52;;;20.30;;
29774;SDS011;16676;51.202;6.774;2023-02-15T06:50:22;23.20;;;15.95;;
29774;SDS011;16676;51.202;6.774;2023-02-15T06:54:24;20.30;;;14.63;;
29774;SDS011;16676;51.202;6.774;2023-02-15T06:58:28;24.92;;;14.77;;
29774;SDS011;16676;51.202;6.774;2023-02-15T07:02:30;20.75;;;14.38;;
29774;SDS011;16676;51.202;6.774;2023-02-15T07:06:32;16.75;;;11.68;;
29774;SDS011;16676;51.202;6.774;2023-02-15T07:10:35;16.52;;;12.02;;
29774;SDS011;16676;51.202;6.774;2023-02-15T07:14:38;17.95;;;11.75;;
29774;SDS011;16676;51.202;6.774;2023-02-15T07:18:41;15.82;;;11.38;;
29774;SDS011;16676;51.202;6.774;2023-02-15T07:22:42;13.77;;;9.40;;
29774;SDS011;16676;51.202;6.774;2023-02-15T07:26:44;13.02;;;9.57;;
29774;SDS011;16676;51.202;6.774;2023-02-15T07:30:47;13.20;;;8.63;;
29774;SDS011;16676;51.202;6.774;2023-02-15T07:34:49;13.65;;;9.25;;
29774;SDS011;16676;51.202;6.774;2023-02-15T07:38:51;10.73;;;7.57;;
29774;SDS011;16676;51.202;6.774;2023-02-15T07:42:53;11.18;;;7.57;;
29774;SDS011;16676;51.202;6.774;2023-02-15T07:47:00;10.85;;;7.43;;
29774;SDS011;16676;51.202;6.774;2023-02-15T07:51:03;12.13;;;7.78;;
29774;SDS011;16676;51.202;6.774;2023-02-15T07:55:07;9.43;;;6.63;;
29774;SDS011;16676;51.202;6.774;2023-02-15T07:59:12;9.07;;;6.22;;
29774;SDS011;16676;51.202;6.774;2023-02-15T08:03:16;8.75;;;6.75;;
29774;SDS011;16676;51.202;6.774;2023-02-15T08:07:18;9.13;;;6.60;;
29774;SDS011;16676;51.202;6.774;2023-02-15T08:11:20;8.05;;;5.93;;
29774;SDS011;16676;51.202;6.774;2023-02-15T08:15:29;9.18;;;6.13;;
29774;SDS011;16676;51.202;6.774;2023-02-15T08:19:33;7.78;;;5.85;;
29774;SDS011;16676;51.202;6.774;2023-02-15T08:23:35;6.53;;;5.40;;
29774;SDS011;16676;51.202;6.774;2023-02-15T08:27:37;11.07;;;6.47;;
29774;SDS011;16676;51.202;6.774;2023-02-15T08:31:40;9.90;;;6.10;;
29774;SDS011;16676;51.202;6.774;2023-02-15T08:35:43;7.93;;;5.53;;
29774;SDS011;16676;51.202;6.774;2023-02-15T08:39:45;8.00;;;6.00;;
29774;SDS011;16676;51.202;6.774;2023-02-15T08:43:48;8.07;;;5.57;;
29774;SDS011;16676;51.202;6.774;2023-02-15T08:47:51;7.55;;;4.88;;
29774;SDS011;16676;51.202;6.774;2023-02-15T08:51:55;9.82;;;5.47;;
29774;SDS011;16676;51.202;6.774;2023-02-15T08:55:57;5.68;;;4.53;;
29774;SDS011;16676;51.202;6.774;2023-02-15T08:59:59;6.93;;;4.88;;
29774;SDS011;16676;51.202;6.774;2023-02-15T09:04:03;6.60;;;4.95;;
29774;SDS011;16676;51.202;6.774;2023-02-15T09:08:10;5.50;;;4.47;;
29774;SDS011;16676;51.202;6.774;2023-02-15T09:12:11;7.22;;;4.60;;
29774;SDS011;16676;51.202;6.774;2023-02-15T09:16:13;7.15;;;4.97;;
29774;SDS011;16676;51.202;6.774;2023-02-15T09:20:16;7.68;;;5.05;;
29774;SDS011;16676;51.202;6.774;2023-02-15T09:24:20;6.45;;;4.60;;
29774;SDS011;16676;51.202;6.774;2023-02-15T09:28:22;8.05;;;4.70;;
29774;SDS011;16676;51.202;6.774;2023-02-15T09:32:24;5.53;;;4.43;;
29774;SDS011;16676;51.202;6.774;2023-02-15T09:36:27;5.60;;;4.38;;
29774;SDS011;16676;51.202;6.774;2023-02-15T09:40:31;5.25;;;4.05;;
29774;SDS011;16676;51.202;6.774;2023-02-15T09:44:51;4.68;;;3.80;;
29774;SDS011;16676;51.202;6.774;2023-02-15T09:49:06;6.43;;;4.70;;
29774;SDS011;16676;51.202;6.774;2023-02-15T09:53:20;7.72;;;3.80;;
29774;SDS011;16676;51.202;6.774;2023-02-15T09:57:33;8.40;;;4.22;;
29774;SDS011;16676;51.202;6.774;2023-02-15T10:01:42;5.28;;;3.72;;
29774;SDS011;16676;51.202;6.774;2023-02-15T10:05:54;5.18;;;4.20;;
29774;SDS011;16676;51.202;6.774;2023-02-15T10:10:12;5.38;;;3.85;;
29774;SDS011;16676;51.202;6.774;2023-02-15T10:19:10;5.35;;;4.22;;
29774;SDS011;16676;51.202;6.774;2023-02-15T10:23:22;7.32;;;4.22;;
29774;SDS011;16676;51.202;6.774;2023-02-15T10:27:35;6.77;;;3.97;;
29774;SDS011;16676;51.202;6.774;2023-02-15T10:31:44;5.27;;;3.93;;
29774;SDS011;16676;51.202;6.774;2023-02-15T10:35:54;5.65;;;4.30;;
29774;SDS011;16676;51.202;6.774;2023-02-15T10:40:08;5.50;;;3.78;;
29774;SDS011;16676;51.202;6.774;2023-02-15T10:44:23;5.78;;;4.13;;
29774;SDS011;16676;51.202;6.774;2023-02-15T10:48:45;4.65;;;3.28;;
29774;SDS011;16676;51.202;6.774;2023-02-15T10:53:07;4.82;;;3.80;;
29774;SDS011;16676;51.202;6.774;2023-02-15T10:57:17;6.68;;;3.75;;
29774;SDS011;16676;51.202;6.774;2023-02-15T11:01:28;4.13;;;3.22;;
29774;SDS011;16676;51.202;6.774;2023-02-15T11:05:38;4.75;;;3.65;;
29774;SDS011;16676;51.202;6.774;2023-02-15T11:09:50;5.05;;;3.40;;
29774;SDS011;16676;51.202;6.774;2023-02-15T11:13:58;4.97;;;3.50;;
29774;SDS011;16676;51.202;6.774;2023-02-15T11:18:05;4.65;;;3.42;;
29774;SDS011;16676;51.202;6.774;2023-02-15T11:22:13;5.25;;;3.53;;
29774;SDS011;16676;51.202;6.774;2023-02-15T11:26:17;5.47;;;3.78;;
29774;SDS011;16676;51.202;6.774;2023-02-15T11:30:24;4.80;;;3.45;;
29774;SDS011;16676;51.202;6.774;2023-02-15T11:34:31;5.07;;;3.40;;
29774;SDS011;16676;51.202;6.774;2023-02-15T11:38:36;4.10;;;3.20;;
29774;SDS011;16676;51.202;6.774;2023-02-15T11:42:41;5.78;;;3.80;;
29774;SDS011;16676;51.202;6.774;2023-02-15T11:46:44;10.05;;;7.70;;
29774;SDS011;16676;51.202;6.774;2023-02-15T11:50:46;10.48;;;7.05;;
29774;SDS011;16676;51.202;6.774;2023-02-15T11:54:49;9.60;;;7.18;;
29774;SDS011;16676;51.202;6.774;2023-02-15T11:58:53;11.43;;;8.20;;
29774;SDS011;16676;51.202;6.774;2023-02-15T12:02:59;10.07;;;7.53;;
29774;SDS011;16676;51.202;6.774;2023-02-15T12:07:09;12.93;;;7.57;;
29774;SDS011;16676;51.202;6.774;2023-02-15T12:11:16;12.48;;;7.45;;
29774;SDS011;16676;51.202;6.774;2023-02-15T12:15:29;12.20;;;7.90;;
29774;SDS011;16676;51.202;6.774;2023-02-15T12:19:33;15.45;;;8.88;;
29774;SDS011;16676;51.202;6.774;2023-02-15T12:23:41;11.50;;;8.30;;
29774;SDS011;16676;51.202;6.774;2023-02-15T12:31:51;13.25;;;8.48;;
29774;SDS011;16676;51.202;6.774;2023-02-15T12:35:55;11.80;;;7.72;;
29774;SDS011;16676;51.202;6.774;2023-02-15T12:40:02;14.60;;;8.70;;
29774;SDS011;16676;51.202;6.774;2023-02-15T12:44:20;12.85;;;8.32;;
29774;SDS011;16676;51.202;6.774;2023-02-15T12:48:25;11.77;;;7.60;;
29774;SDS011;16676;51.202;6.774;2023-02-15T12:52:27;13.23;;;7.95;;
29774;SDS011;16676;51.202;6.774;2023-02-15T12:56:29;10.48;;;7.38;;
29774;SDS011;16676;51.202;6.774;2023-02-15T13:00:31;16.52;;;8.00;;
29774;SDS011;16676;51.202;6.774;2023-02-15T13:04:36;11.75;;;7.90;;
29774;SDS011;16676;51.202;6.774;2023-02-15T13:08:39;11.35;;;7.80;;
29774;SDS011;16676;51.202;6.774;2023-02-15T13:12:47;13.70;;;7.93;;
29774;SDS011;16676;51.202;6.774;2023-02-15T13:16:55;12.83;;;8.23;;
29774;SDS011;16676;51.202;6.774;2023-02-15T13:21:04;13.77;;;7.70;;
29774;SDS011;16676;51.202;6.774;2023-02-15T13:25:13;15.35;;;7.75;;
29774;SDS011;16676;51.202;6.774;2023-02-15T13:29:21;13.38;;;7.85;;
29774;SDS011;16676;51.202;6.774;2023-02-15T13:33:26;13.18;;;8.20;;
29774;SDS011;16676;51.202;6.774;2023-02-15T13:37:42;12.45;;;7.72;;
29774;SDS011;16676;51.202;6.774;2023-02-15T13:42:00;13.52;;;8.23;;
29774;SDS011;16676;51.202;6.774;2023-02-15T13:50:16;13.43;;;7.18;;
29774;SDS011;16676;51.202;6.774;2023-02-15T13:58:54;13.48;;;8.55;;
29774;SDS011;16676;51.202;6.774;2023-02-15T14:03:19;14.60;;;8.52;;
29774;SDS011;16676;51.202;6.774;2023-02-15T14:07:50;17.73;;;8.50;;
29774;SDS011;16676;51.202;6.774;2023-02-15T14:12:01;15.20;;;8.85;;
29774;SDS011;16676;51.202;6.774;2023-02-15T14:16:20;16.98;;;8.60;;
29774;SDS011;16676;51.202;6.774;2023-02-15T14:20:39;13.27;;;8.30;;
29774;SDS011;16676;51.202;6.774;2023-02-15T14:24:53;12.35;;;7.65;;
29774;SDS011;16676;51.202;6.774;2023-02-15T14:29:20;13.90;;;8.60;;
29774;SDS011;16676;51.202;6.774;2023-02-15T14:37:41;14.85;;;8.57;;
29774;SDS011;16676;51.202;6.774;2023-02-15T14:41:48;13.93;;;8.27;;
29774;SDS011;16676;51.202;6.774;2023-02-15T14:45:55;15.52;;;8.45;;
29774;SDS011;16676;51.202;6.774;2023-02-15T14:54:56;13.43;;;7.82;;
29774;SDS011;16676;51.202;6.774;2023-02-15T14:59:18;13.40;;;7.68;;
29774;SDS011;16676;51.202;6.774;2023-02-15T15:03:23;15.57;;;8.75;;
29774;SDS011;16676;51.202;6.774;2023-02-15T15:07:27;14.35;;;8.43;;
29774;SDS011;16676;51.202;6.774;2023-02-15T15:11:41;15.75;;;8.73;;
29774;SDS011;16676;51.202;6.774;2023-02-15T15:15:46;15.05;;;9.02;;
29774;SDS011;16676;51.202;6.774;2023-02-15T15:19:59;18.08;;;8.75;;
29774;SDS011;16676;51.202;6.774;2023-02-15T15:24:04;19.65;;;8.88;;
29774;SDS011;16676;51.202;6.774;2023-02-15T15:28:07;17.65;;;8.23;;
29774;SDS011;16676;51.202;6.774;2023-02-15T15:32:09;16.02;;;8.68;;
29774;SDS011;16676;51.202;6.774;2023-02-15T15:36:22;16.52;;;8.05;;
29774;SDS011;16676;51.202;6.774;2023-02-15T15:45:30;14.20;;;7.90;;
29774;SDS011;16676;51.202;6.774;2023-02-15T15:49:42;15.20;;;7.93;;
29774;SDS011;16676;51.202;6.774;2023-02-15T15:53:47;12.57;;;7.63;;
29774;SDS011;16676;51.202;6.774;2023-02-15T15:57:53;14.27;;;8.05;;
29774;SDS011;16676;51.202;6.774;2023-02-15T16:02:03;12.93;;;8.38;;
29774;SDS011;16676;51.202;6.774;2023-02-15T16:06:05;15.18;;;7.90;;
29774;SDS011;16676;51.202;6.774;2023-02-15T16:10:25;12.68;;;7.30;;
29774;SDS011;16676;51.202;6.774;2023-02-15T16:14:30;16.48;;;8.40;;
29774;SDS011;16676;51.202;6.774;2023-02-15T16:18:33;14.82;;;8.60;;
29774;SDS011;16676;51.202;6.774;2023-02-15T16:22:42;14.73;;;8.45;;
29774;SDS011;16676;51.202;6.774;2023-02-15T16:26:51;13.10;;;8.52;;
29774;SDS011;16676;51.202;6.774;2023-02-15T16:31:17;12.57;;;7.80;;
29774;SDS011;16676;51.202;6.774;2023-02-15T16:35:20;13.07;;;7.93;;
29774;SDS011;16676;51.202;6.774;2023-02-15T16:39:23;12.82;;;7.25;;
29774;SDS011;16676;51.202;6.774;2023-02-15T16:43:28;16.23;;;7.60;;
29774;SDS011;16676;51.202;6.774;2023-02-15T16:47:33;12.33;;;7.50;;
29774;SDS011;16676;51.202;6.774;2023-02-15T16:51:40;13.25;;;7.80;;
29774;SDS011;16676;51.202;6.774;2023-02-15T16:55:44;12.40;;;7.35;;
29774;SDS011;16676;51.202;6.774;2023-02-15T16:59:53;10.52;;;7.05;;
29774;SDS011;16676;51.202;6.774;2023-02-15T17:08:29;14.23;;;7.43;;
29774;SDS011;16676;51.202;6.774;2023-02-15T17:12:45;12.52;;;7.55;;
29774;SDS011;16676;51.202;6.774;2023-02-15T17:16:49;10.85;;;6.43;;
29774;SDS011;16676;51.202;6.774;2023-02-15T17:20:54;11.27;;;6.95;;
29774;SDS011;16676;51.202;6.774;2023-02-15T17:24:59;11.02;;;6.85;;
29774;SDS011;16676;51.202;6.774;2023-02-15T17:29:09;11.32;;;6.40;;
29774;SDS011;16676;51.202;6.774;2023-02-15T17:33:22;11.63;;;6.80;;
29774;SDS011;16676;51.202;6.774;2023-02-15T17:37:30;9.95;;;6.45;;
29774;SDS011;16676;51.202;6.774;2023-02-15T17:41:42;11.60;;;6.30;;
29774;SDS011;16676;51.202;6.774;2023-02-15T17:45:46;9.88;;;6.07;;
29774;SDS011;16676;51.202;6.774;2023-02-15T17:49:51;8.93;;;5.30;;
29774;SDS011;16676;51.202;6.774;2023-02-15T17:53:54;9.30;;;5.25;;
29774;SDS011;16676;51.202;6.774;2023-02-15T17:58:13;11.30;;;4.38;;
29774;SDS011;16676;51.202;6.774;2023-02-15T18:02:16;6.30;;;3.92;;
29774;SDS011;16676;51.202;6.774;2023-02-15T18:06:37;8.77;;;4.63;;
29774;SDS011;16676;51.202;6.774;2023-02-15T18:10:59;6.10;;;3.80;;
29774;SDS011;16676;51.202;6.774;2023-02-15T18:15:19;9.40;;;3.92;;
29774;SDS011;16676;51.202;6.774;2023-02-15T18:19:21;9.27;;;4.03;;
29774;SDS011;16676;51.202;6.774;2023-02-15T18:23:26;7.72;;;4.30;;
29774;SDS011;16676;51.202;6.774;2023-02-15T18:27:28;9.75;;;4.60;;
29774;SDS011;16676;51.202;6.774;2023-02-15T18:31:30;6.85;;;3.92;;
29774;SDS011;16676;51.202;6.774;2023-02-15T18:35:32;9.45;;;4.07;;
29774;SDS011;16676;51.202;6.774;2023-02-15T18:39:36;7.63;;;3.65;;
29774;SDS011;16676;51.202;6.774;2023-02-15T18:43:40;6.60;;;4.05;;
29774;SDS011;16676;51.202;6.774;2023-02-15T18:47:42;7.13;;;4.20;;
29774;SDS011;16676;51.202;6.774;2023-02-15T18:51:44;7.57;;;4.75;;
29774;SDS011;16676;51.202;6.774;2023-02-15T18:55:48;8.35;;;4.63;;
29774;SDS011;16676;51.202;6.774;2023-02-15T18:59:50;6.88;;;4.30;;
29774;SDS011;16676;51.202;6.774;2023-02-15T19:03:52;7.95;;;4.45;;
29774;SDS011;16676;51.202;6.774;2023-02-15T19:07:54;8.13;;;4.80;;
29774;SDS011;16676;51.202;6.774;2023-02-15T19:11:58;8.25;;;5.25;;
29774;SDS011;16676;51.202;6.774;2023-02-15T19:16:00;7.32;;;4.68;;
29774;SDS011;16676;51.202;6.774;2023-02-15T19:20:04;9.20;;;4.85;;
29774;SDS011;16676;51.202;6.774;2023-02-15T19:24:08;8.30;;;5.25;;
29774;SDS011;16676;51.202;6.774;2023-02-15T19:28:16;8.77;;;5.10;;
29774;SDS011;16676;51.202;6.774;2023-02-15T19:32:21;8.23;;;5.30;;
29774;SDS011;16676;51.202;6.774;2023-02-15T19:36:24;8.88;;;5.35;;
29774;SDS011;16676;51.202;6.774;2023-02-15T19:40:26;8.25;;;4.90;;
29774;SDS011;16676;51.202;6.774;2023-02-15T19:44:31;7.78;;;4.85;;
29774;SDS011;16676;51.202;6.774;2023-02-15T19:48:33;9.40;;;5.20;;
29774;SDS011;16676;51.202;6.774;2023-02-15T19:52:35;10.60;;;5.22;;
29774;SDS011;16676;51.202;6.774;2023-02-15T19:56:37;7.75;;;4.38;;
29774;SDS011;16676;51.202;6.774;2023-02-15T20:00:40;6.30;;;4.35;;
29774;SDS011;16676;51.202;6.774;2023-02-15T20:04:42;9.77;;;4.65;;
29774;SDS011;16676;51.202;6.774;2023-02-15T20:08:44;6.28;;;4.18;;
29774;SDS011;16676;51.202;6.774;2023-02-15T20:12:46;7.45;;;4.68;;
29774;SDS011;16676;51.202;6.774;2023-02-15T20:16:50;7.30;;;4.28;;
29774;SDS011;16676;51.202;6.774;2023-02-15T20:20:52;11.70;;;5.18;;
29774;SDS011;16676;51.202;6.774;2023-02-15T20:24:55;8.43;;;5.32;;
29774;SDS011;16676;51.202;6.774;2023-02-15T20:28:58;8.90;;;4.40;;
29774;SDS011;16676;51.202;6.774;2023-02-15T20:33:01;9.02;;;4.55;;
29774;SDS011;16676;51.202;6.774;2023-02-15T20:37:03;8.13;;;4.55;;
29774;SDS011;16676;51.202;6.774;2023-02-15T20:41:07;6.47;;;3.83;;
29774;SDS011;16676;51.202;6.774;2023-02-15T20:45:32;13.32;;;5.10;;
29774;SDS011;16676;51.202;6.774;2023-02-15T20:49:35;8.10;;;4.40;;
29774;SDS011;16676;51.202;6.774;2023-02-15T20:53:37;7.93;;;3.65;;
29774;SDS011;16676;51.202;6.774;2023-02-15T20:57:39;8.90;;;4.35;;
29774;SDS011;16676;51.202;6.774;2023-02-15T21:01:41;9.32;;;4.55;;
29774;SDS011;16676;51.202;6.774;2023-02-15T21:05:44;5.95;;;3.97;;
29774;SDS011;16676;51.202;6.774;2023-02-15T21:09:48;7.15;;;4.18;;
29774;SDS011;16676;51.202;6.774;2023-02-15T21:13:51;6.50;;;4.18;;
29774;SDS011;16676;51.202;6.774;2023-02-15T21:17:53;7.22;;;4.00;;
29774;SDS011;16676;51.202;6.774;2023-02-15T21:21:57;6.82;;;4.05;;
29774;SDS011;16676;51.202;6.774;2023-02-15T21:26:00;7.85;;;3.97;;
29774;SDS011;16676;51.202;6.774;2023-02-15T21:30:02;6.85;;;3.97;;
29774;SDS011;16676;51.202;6.774;2023-02-15T21:34:06;9.77;;;3.90;;
29774;SDS011;16676;51.202;6.774;2023-02-15T21:38:10;5.85;;;3.47;;
29774;SDS011;16676;51.202;6.774;2023-02-15T21:42:15;7.80;;;4.25;;
29774;SDS011;16676;51.202;6.774;2023-02-15T21:46:34;9.40;;;4.13;;
29774;SDS011;16676;51.202;6.774;2023-02-15T21:50:54;8.52;;;3.92;;
29774;SDS011;16676;51.202;6.774;2023-02-15T21:55:17;9.20;;;4.35;;
29774;SDS011;16676;51.202;6.774;2023-02-15T21:59:19;5.88;;;4.13;;
29774;SDS011;16676;51.202;6.774;2023-02-15T22:03:22;5.20;;;3.80;;
29774;SDS011;16676;51.202;6.774;2023-02-15T22:07:25;6.72;;;3.65;;
29774;SDS011;16676;51.202;6.774;2023-02-15T22:11:28;5.97;;;4.07;;
29774;SDS011;16676;51.202;6.774;2023-02-15T22:15:32;6.72;;;4.07;;
29774;SDS011;16676;51.202;6.774;2023-02-15T22:19:35;5.72;;;4.05;;
29774;SDS011;16676;51.202;6.774;2023-02-15T22:23:37;6.22;;;4.00;;
29774;SDS011;16676;51.202;6.774;2023-02-15T22:27:41;6.35;;;3.72;;
29774;SDS011;16676;51.202;6.774;2023-02-15T22:31:44;6.10;;;3.90;;
29774;SDS011;16676;51.202;6.774;2023-02-15T22:35:48;5.38;;;3.65;;
29774;SDS011;16676;51.202;6.774;2023-02-15T22:39:50;5.63;;;3.53;;
29774;SDS011;16676;51.202;6.774;2023-02-15T22:43:53;5.40;;;3.20;;
29774;SDS011;16676;51.202;6.774;2023-02-15T22:47:56;5.05;;;3.55;;
29774;SDS011;16676;51.202;6.774;2023-02-15T22:52:00;5.35;;;3.78;;
29774;SDS011;16676;51.202;6.774;2023-02-15T22:56:03;8.00;;;3.67;;
29774;SDS011;16676;51.202;6.774;2023-02-15T23:00:13;6.23;;;4.07;;
29774;SDS011;16676;51.202;6.774;2023-02-15T23:04:17;4.93;;;3.53;;
29774;SDS011;16676;51.202;6.774;2023-02-15T23:08:20;6.30;;;3.80;;
29774;SDS011;16676;51.202;6.774;2023-02-15T23:12:24;10.05;;;4.25;;
29774;SDS011;16676;51.202;6.774;2023-02-15T23:16:29;5.28;;;3.83;;
29774;SDS011;16676;51.202;6.774;2023-02-15T23:20:31;6.32;;;4.03;;
29774;SDS011;16676;51.202;6.774;2023-02-15T23:24:33;7.68;;;4.28;;
29774;SDS011;16676;51.202;6.774;2023-02-15T23:28:36;5.60;;;4.07;;
29774;SDS011;16676;51.202;6.774;2023-02-15T23:32:40;8.43;;;4.15;;
29774;SDS011;16676;51.202;6.774;2023-02-15T23:36:42;5.53;;;3.47;;
29774;SDS011;16676;51.202;6.774;2023-02-15T23:40:45;6.78;;;3.85;;
29774;SDS011;16676;51.202;6.774;2023-02-15T23:45:15;5.35;;;3.60;;
29774;SDS011;16676;51.202;6.774;2023-02-15T23:49:23;6.22;;;3.90;;
29774;SDS011;16676;51.202;6.774;2023-02-15T23:53:25;7.18;;;3.80;;
29774;SDS011;16676;51.202;6.774;2023-02-15T23:57:27;4.78;;;3.47;;
